Time;durP1;ratioP1;P1;durP2;ratioP2;P2;SDS_P1;SDS_P2;PMS_P1;PMS_P2;Temp;Humidity;BMP_temperature;BMP_pressure;BME280_temperature;BME280_humidity;BME280_pressure;Samples;Min_cycle;Max_cycle;Signal;HPM_P1;HPM_P2
2022/05/29 00:00:23;;;;;;;;;;;;;;;21.55;63.42;99237.84;2044991;28;19914;-53
2022/05/29 00:01:24;;;;;;;;;;;;;;;21.54;61.92;99230.78;2044218;28;19973;-53
2022/05/29 00:02:24;;;;;;;;;;;;;;;21.54;61.68;99232.78;2043871;28;20321;-52
2022/05/29 00:03:24;;;;;;;;;;;;;;;21.54;62.71;99230.78;2041541;28;19961;-54
2022/05/29 00:04:25;;;;;;;;;;;;;;;21.54;62.32;99230.78;2041459;28;20003;-53
2022/05/29 00:05:25;;;;;;;;;;;;;;;21.54;63.09;99228.03;2044835;28;19906;-54
2022/05/29 00:06:25;;;;;;;;;;;;;;;21.54;63.48;99228.03;2042813;28;20355;-52
2022/05/29 00:07:26;;;;;;;;;;;;;;;21.53;62.85;99222.97;2044959;28;19957;-53
2022/05/29 00:08:28;;;;;;;;;;;;;;;21.53;63.04;99229.25;2040051;28;19930;-52
2022/05/29 00:09:45;;;;;;;;;;;;;;;21.53;62.74;99217.47;2048807;28;19936;-52
2022/05/29 00:10:45;;;;;;;;;;;;;;;21.53;62.62;99223.75;2047798;28;20000;-53
2022/05/29 00:11:46;;;;;;;;;;;;;;;21.53;62.70;99220.22;2044320;28;20016;-51
2022/05/29 00:12:46;;;;;;;;;;;;;;;21.53;62.59;99220.22;2042730;28;20354;-51
2022/05/29 00:13:46;;;;;;;;;;;;;;;21.53;62.37;99217.47;2039965;28;19925;-53
2022/05/29 00:14:48;;;;;;;;;;;;;;;21.53;62.47;99225.72;2043906;28;20125;-50
2022/05/29 00:15:48;;;;;;;;;;;;;;;21.52;63.08;99226.97;2041190;28;19914;-53
2022/05/29 00:16:48;;;;;;;;;;;;;;;21.51;62.65;99222.66;2043986;28;20037;-53
2022/05/29 00:17:49;;;;;;;;;;;;;;;21.51;63.21;99217.94;2045375;28;19945;-50
2022/05/29 00:18:49;;;;;;;;;;;;;;;21.50;62.95;99216.38;2042899;28;20024;-50
2022/05/29 00:19:50;;;;;;;;;;;;;;;21.52;62.46;99215.94;2045317;28;20285;-52
2022/05/29 00:20:52;;;;;;;;;;;;;;;21.51;62.60;99219.91;2044205;28;19965;-53
2022/05/29 00:21:53;;;;;;;;;;;;;;;21.51;62.48;99219.91;2041635;28;20313;-50
2022/05/29 00:22:54;;;;;;;;;;;;;;;21.50;63.10;99213.63;2044918;28;20056;-54
2022/05/29 00:23:55;;;;;;;;;;;;;;;21.49;61.97;99212.09;2045000;28;20260;-54
2022/05/29 00:24:55;;;;;;;;;;;;;;;21.49;62.62;99214.84;2042829;28;20380;-53
2022/05/29 00:25:56;;;;;;;;;;;;;;;21.48;62.35;99219.59;2046125;28;19912;-52
2022/05/29 00:26:56;;;;;;;;;;;;;;;21.48;62.40;99214.06;2044260;28;20231;-52
2022/05/29 00:27:57;;;;;;;;;;;;;;;21.48;61.72;99205.81;2045282;28;19913;-54
2022/05/29 00:28:57;;;;;;;;;;;;;;;21.47;62.61;99206.25;2043971;28;20287;-54
2022/05/29 00:29:57;;;;;;;;;;;;;;;21.47;62.85;99212.53;2044684;28;19906;-54
2022/05/29 00:30:58;;;;;;;;;;;;;;;21.46;63.15;99208.28;2045267;28;20297;-53
2022/05/29 00:31:59;;;;;;;;;;;;;;;21.46;62.99;99208.28;2043669;28;20630;-54
2022/05/29 00:33:00;;;;;;;;;;;;;;;21.46;62.54;99210.25;2046311;28;20407;-50
2022/05/29 00:34:00;;;;;;;;;;;;;;;21.46;62.83;99213.00;2041264;28;19914;-53
2022/05/29 00:35:01;;;;;;;;;;;;;;;21.46;63.04;99210.25;2043336;28;20093;-54
2022/05/29 00:36:01;;;;;;;;;;;;;;;21.45;62.43;99208.72;2043819;28;21039;-53
2022/05/29 00:37:03;;;;;;;;;;;;;;;21.45;62.77;99212.22;2043659;28;19992;-53
2022/05/29 00:38:04;;;;;;;;;;;;;;;21.45;62.58;99212.22;2044773;28;20337;-53
2022/05/29 00:39:04;;;;;;;;;;;;;;;21.45;62.28;99211.47;2044059;28;20207;-53
2022/05/29 00:40:12;;;;;;;;;;;;;;;21.45;62.43;99214.22;2042146;28;19918;-53
2022/05/29 00:41:23;;;;;;;;;;;;;;;21.43;62.59;99203.66;2045643;28;19918;-53
2022/05/29 00:42:24;;;;;;;;;;;;;;;21.44;62.57;99205.19;2042762;28;19932;-54
2022/05/29 00:43:24;;;;;;;;;;;;;;;21.44;63.01;99209.91;2042200;28;19929;-50
2022/05/29 00:44:29;;;;;;;;;;;;;;;21.43;62.89;99200.88;2041653;28;19961;-53
2022/05/29 00:45:33;;;;;;;;;;;;;;;21.42;63.09;99207.59;2044066;28;20227;-53
2022/05/29 00:46:34;;;;;;;;;;;;;;;21.41;62.26;99206.06;2041999;28;20024;-52
2022/05/29 00:47:34;;;;;;;;;;;;;;;21.42;61.83;99206.84;2045436;28;19950;-52
2022/05/29 00:48:34;;;;;;;;;;;;;;;21.41;62.97;99213.59;2043184;28;19928;-50
2022/05/29 00:49:36;;;;;;;;;;;;;;;21.41;62.29;99210.84;2044015;28;20004;-53
2022/05/29 00:50:36;;;;;;;;;;;;;;;21.41;63.51;99210.84;2042835;28;20317;-53
2022/05/29 00:51:38;;;;;;;;;;;;;;;21.40;63.49;99206.53;2053039;28;19910;-53
2022/05/29 00:52:38;;;;;;;;;;;;;;;21.40;63.04;99209.28;2052194;28;20335;-54
2022/05/29 00:53:39;;;;;;;;;;;;;;;21.40;63.28;99203.78;2045262;28;19969;-54
2022/05/29 00:54:42;;;;;;;;;;;;;;;21.40;63.36;99218.31;2044037;28;19921;-54
2022/05/29 00:55:46;;;;;;;;;;;;;;;21.39;62.63;99213.25;2038817;28;20401;-50
2022/05/29 00:56:47;;;;;;;;;;;;;;;21.39;61.90;99202.25;2043753;28;19913;-53
2022/05/29 00:57:55;;;;;;;;;;;;;;;21.39;62.19;99207.75;2043240;28;20779;-53
2022/05/29 00:58:57;;;;;;;;;;;;;;;21.39;62.87;99202.25;2041223;28;19972;-54
2022/05/29 00:59:59;;;;;;;;;;;;;;;21.38;62.41;99206.97;2045420;28;20029;-53
2022/05/29 01:01:01;;;;;;;;;;;;;;;21.37;62.54;99201.91;2043122;28;21164;-53
2022/05/29 01:02:02;;;;;;;;;;;;;;;21.37;62.92;99204.66;2047080;28;19977;-51
2022/05/29 01:03:03;;;;;;;;;;;;;;;21.38;62.12;99211.72;2043663;28;19953;-53
2022/05/29 01:04:03;;;;;;;;;;;;;;;21.38;62.03;99211.72;2043885;28;19995;-53
2022/05/29 01:05:05;;;;;;;;;;;;;;;21.37;62.74;99204.66;2042023;28;19952;-53
2022/05/29 01:06:05;;;;;;;;;;;;;;;21.36;62.00;99214.91;2051943;28;19961;-53
2022/05/29 01:07:08;;;;;;;;;;;;;;;21.35;62.77;99213.41;2051507;28;19948;-52
2022/05/29 01:08:19;;;;;;;;;;;;;;;21.35;63.15;99215.38;2048610;28;19921;-53
2022/05/29 01:09:19;;;;;;;;;;;;;;;21.33;62.55;99207.56;2049488;28;20012;-53
2022/05/29 01:10:22;;;;;;;;;;;;;;;21.34;62.93;99208.31;2044284;28;20649;-51
2022/05/29 01:11:38;;;;;;;;;;;;;;;21.33;63.30;99206.78;2039527;28;19915;-54
2022/05/29 01:12:41;;;;;;;;;;;;;;;21.32;63.17;99208.78;2044206;28;19929;-54
2022/05/29 01:13:52;;;;;;;;;;;;;;;21.31;62.94;99209.22;2044812;28;20376;-53
2022/05/29 01:15:07;;;;;;;;;;;;;;;21.31;63.08;99204.47;2050256;28;19944;-53
2022/05/29 01:16:14;;;;;;;;;;;;;;;21.31;62.96;99206.47;2049667;28;19909;-54
2022/05/29 01:17:22;;;;;;;;;;;;;;;21.31;62.46;99203.69;2038106;28;19907;-53
2022/05/29 01:18:26;;;;;;;;;;;;;;;21.31;61.94;99195.44;2041720;28;19949;-53
2022/05/29 01:19:32;;;;;;;;;;;;;;;21.30;61.70;99200.22;2045632;28;19914;-53
2022/05/29 01:20:33;;;;;;;;;;;;;;;21.29;61.41;99201.41;2045739;28;19914;-53
2022/05/29 01:21:39;;;;;;;;;;;;;;;21.30;60.88;99193.94;2043649;28;19988;-53
2022/05/29 01:22:51;;;;;;;;;;;;;;;21.29;61.34;99203.41;2045957;28;19921;-53
2022/05/29 01:24:01;;;;;;;;;;;;;;;21.29;61.31;99198.66;2043630;28;19918;-54
2022/05/29 01:25:04;;;;;;;;;;;;;;;21.27;62.01;99201.09;2045154;28;19993;-54
2022/05/29 01:26:04;;;;;;;;;;;;;;;21.28;62.48;99207.38;2044379;28;19914;-53
2022/05/29 01:27:34;;;;;;;;;;;;;;;21.26;62.20;99194.03;2046174;28;19945;-53
2022/05/29 01:28:46;;;;;;;;;;;;;;;21.26;62.08;99204.28;2027298;29;19974;-53
2022/05/29 01:30:10;;;;;;;;;;;;;;;21.26;62.05;99196.03;2029406;28;19907;-53
2022/05/29 01:31:14;;;;;;;;;;;;;;;21.25;62.02;99195.28;2034316;28;19918;-52
2022/05/29 01:32:17;;;;;;;;;;;;;;;21.26;61.89;99193.25;2044988;28;19914;-51
2022/05/29 01:33:22;;;;;;;;;;;;;;;21.26;61.73;99193.25;2042269;28;19913;-53
2022/05/29 01:34:23;;;;;;;;;;;;;;;21.25;61.32;99202.78;2044824;28;19917;-53
2022/05/29 01:35:26;;;;;;;;;;;;;;;21.26;60.99;99196.03;2046279;28;20044;-52
2022/05/29 01:36:47;;;;;;;;;;;;;;;21.25;60.50;99191.75;2038839;28;19914;-50
2022/05/29 01:38:07;;;;;;;;;;;;;;;21.25;60.59;99189.00;2044095;28;19936;-52
2022/05/29 01:39:21;;;;;;;;;;;;;;;21.24;60.77;99184.69;2044834;28;19934;-53
2022/05/29 01:40:35;;;;;;;;;;;;;;;21.24;60.60;99190.22;2045202;28;19963;-53
2022/05/29 01:41:44;;;;;;;;;;;;;;;21.23;60.90;99183.94;2045011;28;19914;-53
2022/05/29 01:43:11;;;;;;;;;;;;;;;21.22;61.24;99185.16;2043465;28;20009;-51
2022/05/29 01:44:15;;;;;;;;;;;;;;;21.22;61.59;99178.88;2015587;28;20027;-50
2022/05/29 01:45:33;;;;;;;;;;;;;;;21.21;61.02;99174.56;2046008;28;19918;-53
2022/05/29 01:46:37;;;;;;;;;;;;;;;21.20;61.96;99173.81;2041710;28;20335;-51
2022/05/29 01:47:38;;;;;;;;;;;;;;;21.21;61.11;99169.06;2044634;28;20311;-50
2022/05/29 01:48:45;;;;;;;;;;;;;;;21.20;60.59;99173.81;2045457;28;19906;-53
2022/05/29 01:49:49;;;;;;;;;;;;;;;21.21;60.00;99180.06;2044630;28;19914;-51
2022/05/29 01:50:59;;;;;;;;;;;;;;;21.21;60.06;99163.56;2043963;28;20676;-53
2022/05/29 01:52:02;;;;;;;;;;;;;;;21.20;60.21;99170.31;2046779;28;19914;-50
2022/05/29 01:53:14;;;;;;;;;;;;;;;21.20;60.64;99173.06;2045322;28;20072;-52
2022/05/29 01:54:14;;;;;;;;;;;;;;;21.19;60.57;99166.78;2043497;28;20100;-53
2022/05/29 01:55:25;;;;;;;;;;;;;;;21.19;61.09;99163.25;2038193;28;20029;-53
2022/05/29 01:56:33;;;;;;;;;;;;;;;21.18;61.05;99164.47;2043788;28;19937;-53
2022/05/29 01:57:40;;;;;;;;;;;;;;;21.17;61.23;99162.91;2042399;28;19914;-52
2022/05/29 01:58:44;;;;;;;;;;;;;;;21.16;61.14;99159.41;2044775;28;20232;-53
2022/05/29 01:59:56;;;;;;;2.50;1.40;;;;;;;21.17;60.91;99165.69;2040125;28;19915;-50
2022/05/29 02:00:59;;;;;;;;;;;;;;;21.14;61.46;99158.28;2043737;28;20976;-50
2022/05/29 02:02:09;;;;;;;;;;;;;;;21.14;60.96;99158.28;2051217;28;20097;-52
2022/05/29 02:03:18;;;;;;;;;;;;;;;21.13;60.78;99160.28;2045801;28;19921;-50
2022/05/29 02:04:20;;;;;;;;;;;;;;;21.14;60.64;99159.09;2045228;28;19961;-54
2022/05/29 02:05:23;;;;;;;;;;;;;;;21.15;60.47;99157.13;2045823;28;19920;-52
2022/05/29 02:07:47;;;;;;;;;;;;;;;21.14;60.47;99158.28;2043277;28;19914;-50
2022/05/29 02:08:10;;;;;;;;;;;;;;;21.13;60.44;99154.00;2041895;28;19944;-51
2022/05/29 02:09:11;;;;;;;;;;;;;;;21.13;59.82;99162.25;2045703;28;20484;-54
2022/05/29 02:10:20;;;;;;;;;;;;;;;21.14;59.46;99161.06;2039768;28;19918;-50
2022/05/29 02:11:22;;;;;;;;;;;;;;;21.13;59.89;99167.75;2043765;28;20205;-53
2022/05/29 02:12:25;;;;;;;;;;;;;;;21.13;60.28;99167.75;2043250;28;19926;-53
2022/05/29 02:13:32;;;;;;;;;;;;;;;21.10;60.03;99161.16;2044749;28;19960;-53
2022/05/29 02:14:36;;;;;;;;;;;;;;;21.11;59.89;99164.69;2044591;28;19973;-54
2022/05/29 02:15:42;;;;;;;;;;;;;;;21.10;60.44;99163.91;2042296;28;19921;-53
2022/05/29 02:16:55;;;;;;;;;;;;;;;21.10;60.55;99163.16;2044539;28;20633;-53
2022/05/29 02:17:58;;;;;;;;;;;;;;;21.10;59.88;99161.16;2041701;28;20335;-52
2022/05/29 02:19:11;;;;;;;;;;;;;;;21.08;60.80;99160.84;2045227;28;19914;-51
2022/05/29 02:20:20;;;;;;;;;;;;;;;21.08;60.20;99160.84;2046256;28;19921;-50
2022/05/29 02:21:23;;;;;;;;;;;;;;;21.08;60.04;99161.63;2044869;28;19981;-52
2022/05/29 02:22:27;;;;;;;;;;;;;;;21.08;59.84;99164.38;2046459;28;20036;-53
2022/05/29 02:23:34;;;;;;;;;;;;;;;21.07;60.00;99160.09;2045780;28;20351;-50
2022/05/29 02:24:43;;;;;;;;;;;;;;;21.06;60.44;99158.53;2042021;28;19914;-53
2022/05/29 02:25:45;;;;;;;;;;;;;;;21.05;59.99;99148.75;2044707;28;20403;-53
2022/05/29 02:26:48;;;;;;;;;;;;;;;21.07;60.18;99154.56;2044751;28;19918;-50
2022/05/29 02:27:54;;;;;;;;;;;;;;;21.06;59.98;99157.78;2046475;28;19914;-54
2022/05/29 02:28:56;;;;;;;;;;;;;;;21.05;60.58;99154.25;2040176;28;20004;-50
2022/05/29 02:29:57;;;;;;;;;;;;;;;21.05;60.48;99156.22;2044015;28;20738;-51
2022/05/29 02:31:20;;;;;;;;;;;;;;;21.03;59.95;99159.44;2040442;28;19953;-52
2022/05/29 02:32:21;;;;;;;;;;;;;;;21.02;59.71;99157.91;2020855;29;19915;-53
2022/05/29 02:33:21;;;;;;;;;;;;;;;21.03;59.53;99156.69;2042299;28;19921;-53
2022/05/29 02:34:40;;;;;;;;;;;;;;;21.05;59.32;99162.50;2042405;28;19939;-51
2022/05/29 02:36:19;;;;;;;;;;;;;;;21.05;58.81;99154.25;2042170;28;19918;-51
2022/05/29 02:37:27;;;;;;;;;;;;;;;21.03;59.14;99153.19;2052736;28;19914;-52
2022/05/29 02:38:30;;;;;;;;;;;;;;;21.03;59.10;99150.41;2049377;28;19964;-53
2022/05/29 02:39:49;;;;;;;;;;;;;;;21.03;58.92;99147.66;2039992;28;20008;-52
2022/05/29 02:40:56;;;;;;;;;;;;;;;21.00;59.30;99154.81;2037597;28;19914;-54
2022/05/29 02:41:59;;;;;;;;;;;;;;;21.00;59.77;99154.06;2044639;28;20699;-53
2022/05/29 02:43:02;;;;;;;;;;;;;;;20.99;59.67;99150.53;2044082;28;20006;-53
2022/05/29 02:44:08;;;;;;;;;;;;;;;20.99;59.34;99158.03;2038473;29;20004;-52
2022/05/29 02:45:14;;;;;;;;;;;;;;;20.99;59.44;99158.03;2051372;28;19980;-51
2022/05/29 02:46:27;;;;;;;;;;;;;;;20.99;59.97;99158.78;2049348;28;20559;-53
2022/05/29 02:47:41;;;;;;;;;;;;;;;20.99;60.11;99158.03;2038778;28;19961;-52
2022/05/29 02:48:49;;;;;;;;;;;;;;;20.98;60.09;99159.25;2043855;28;25100;-51
2022/05/29 02:49:52;;;;;;;;;;;;;;;20.97;59.58;99165.97;2043565;28;20272;-54
2022/05/29 02:50:58;;;;;;;;;;;;;;;20.97;60.05;99155.72;2045247;28;19906;-54
2022/05/29 02:52:04;;;;;;;;;;;;;;;20.96;60.06;99156.94;2042950;28;19945;-53
2022/05/29 02:53:09;;;;;;;;;;;;;;;20.97;60.12;99155.72;2042168;28;19949;-50
2022/05/29 02:54:19;;;;;;;;;;;;;;;20.95;59.82;99162.88;2045146;28;19961;-53
2022/05/29 02:55:21;;;;;;;;;;;;;;;20.96;59.71;99158.94;2045889;28;19914;-53
2022/05/29 02:56:21;;;;;;;;;;;;;;;20.93;59.82;99160.59;2044495;28;19914;-52
2022/05/29 02:57:22;;;;;;;;;;;;;;;20.95;59.66;99160.13;2046237;28;20497;-54
2022/05/29 02:58:26;;;;;;;;;;;;;;;20.93;59.93;99155.09;2044114;28;19914;-53
2022/05/29 02:59:30;;;;;;;;;;;;;;;20.92;60.80;99155.53;2046439;28;19948;-53
2022/05/29 03:00:32;;;;;;;;;;;;;;;20.89;61.47;99159.16;2043875;28;19914;-53
2022/05/29 03:01:36;;;;;;;;;;;;;;;20.89;62.82;99161.91;2044210;28;19922;-51
2022/05/29 03:02:42;;;;;;;;;;;;;;;20.86;62.57;99162.81;2045974;28;19957;-53
2022/05/29 03:03:46;;;;;;;;;;;;;;;20.87;61.99;99161.63;2040877;28;19918;-54
2022/05/29 03:04:55;;;;;;;;;;;;;;;20.86;62.15;99163.59;2041870;28;20482;-50
2022/05/29 03:06:02;;;;;;;;;;;;;;;20.85;62.17;99167.56;2045409;28;19960;-52
2022/05/29 03:07:16;;;;;;;;;;;;;;;20.86;62.01;99160.84;2043081;28;20008;-53
2022/05/29 03:08:16;;;;;;;;;;;;;;;20.87;61.97;99159.63;2042326;28;20101;-50
2022/05/29 03:09:19;;;;;;;;;;;;;;;20.85;62.31;99159.31;2045840;28;20368;-54
2022/05/29 03:10:23;;;;;;;;;;;;;;;20.83;62.93;99155.47;2044579;28;20234;-52
2022/05/29 03:11:40;;;;;;;;;;;;;;;20.81;63.58;99158.66;2042925;28;20225;-54
2022/05/29 03:12:52;;;;;;;;;;;;;;;20.81;63.97;99157.91;2044585;28;19929;-51
2022/05/29 03:13:58;;;;;;;;;;;;;;;20.77;62.92;99160.78;2045841;28;20272;-53
2022/05/29 03:15:08;;;;;;;;;;;;;;;20.77;62.63;99154.50;2045218;28;19906;-52
2022/05/29 03:16:16;;;;;;;;;;;;;;;20.77;62.58;99155.28;2043447;28;19918;-53
2022/05/29 03:17:28;;;;;;;;;;;;;;;20.78;62.46;99148.53;2044354;28;19913;-53
2022/05/29 03:18:37;;;;;;;;;;;;;;;20.81;61.32;99142.16;2043624;28;20469;-50
2022/05/29 03:19:38;;;;;;;;;;;;;;;20.80;60.66;99140.59;2042529;28;19906;-53
2022/05/29 03:20:41;;;;;;;;;;;;;;;20.82;60.29;99140.19;2043824;28;20283;-52
2022/05/29 03:22:00;;;;;;;;;;;;;;;20.84;59.94;99138.50;2045217;28;19914;-53
2022/05/29 03:23:17;;;;;;;;;;;;;;;20.85;60.03;99133.75;2039937;28;20592;-53
2022/05/29 03:24:30;;;;;;;;;;;;;;;20.82;59.93;99135.44;2044090;28;20909;-50
2022/05/29 03:25:33;;;;;;;;;;;;;;;20.82;59.62;99138.19;2041863;28;20063;-53
2022/05/29 03:26:41;;;;;;;;;;;;;;;20.80;59.71;99135.09;2044400;28;19914;-52
2022/05/29 03:27:45;;;;;;;;;;;;;;;20.80;61.01;99140.59;2047076;28;19917;-52
2022/05/29 03:28:55;;;;;;;;;;;;;;;20.78;60.44;99143.03;2046758;28;20289;-53
2022/05/29 03:29:55;;;;;;;;;;;;;;;20.78;62.19;99142.28;2053025;28;19918;-53
2022/05/29 03:30:57;;;;;;;;;;;;;;;20.76;63.23;99141.97;2049635;28;20417;-52
2022/05/29 03:31:58;;;;;;;;;;;;;;;20.73;62.98;99137.34;2045204;28;19921;-50
2022/05/29 03:33:04;;;;;;;;;;;;;;;20.71;63.67;99139.78;2039965;28;19914;-53
2022/05/29 03:34:06;;;;;;;;;;;;;;;20.71;62.11;99137.78;2041298;28;19921;-52
2022/05/29 03:35:24;;;;;;;;;;;;;;;20.72;61.42;99139.34;2044776;28;19918;-51
2022/05/29 03:36:31;;;;;;;;;;;;;;;20.73;60.83;99143.59;2052732;28;19961;-54
2022/05/29 03:37:31;;;;;;;;;;;;;;;20.74;59.98;99134.13;2051177;28;19909;-53
2022/05/29 03:38:31;;;;;;;;;;;;;;;20.76;59.69;99136.44;2044863;28;20377;-50
2022/05/29 03:39:32;;;;;;;;;;;;;;;20.78;59.53;99139.53;2041655;28;19914;-53
2022/05/29 03:40:33;;;;;;;;;;;;;;;20.78;59.52;99136.78;2044194;28;19934;-51
2022/05/29 03:41:39;;;;;;;;;;;;;;;20.78;59.66;99148.53;2043108;28;19918;-51
2022/05/29 03:42:40;;;;;;;;;;;;;;;20.77;59.35;99136.00;2041230;28;19973;-53
2022/05/29 03:43:40;;;;;;;;;;;;;;;20.76;59.24;99145.47;2043954;28;19929;-51
2022/05/29 03:44:40;;;;;;;;;;;;;;;20.76;59.25;99136.44;2044480;28;19924;-53
2022/05/29 03:45:41;;;;;;;;;;;;;;;20.78;59.18;99143.03;2042598;28;19998;-54
2022/05/29 03:46:43;;;;;;;;;;;;;;;20.76;58.93;99134.47;2039084;28;19996;-53
2022/05/29 03:47:43;;;;;;;;;;;;;;;20.76;59.08;99137.22;2048388;28;19957;-52
2022/05/29 03:48:43;;;;;;;;;;;;;;;20.75;59.61;99137.66;2051293;28;20773;-52
2022/05/29 03:49:43;;;;;;;;;;;;;;;20.73;59.28;99134.59;2042819;28;19996;-51
2022/05/29 03:50:44;;;;;;;;;;;;;;;20.73;59.42;99134.59;2039845;28;19933;-52
2022/05/29 03:51:44;;;;;;;;;;;;;;;20.72;59.00;99136.59;2043882;28;19984;-53
2022/05/29 03:52:45;;;;;;;;;;;;;;;20.73;58.94;99134.59;2041044;28;19914;-54
2022/05/29 03:53:45;;;;;;;;;;;;;;;20.73;59.04;99134.59;2043920;28;20802;-52
2022/05/29 03:54:46;;;;;;;;;;;;;;;20.73;59.07;99134.59;2051027;28;20855;-53
2022/05/29 03:55:46;;;;;;;;;;;;;;;20.72;59.04;99133.84;2049718;28;20352;-53
2022/05/29 03:56:46;;;;;;;;;;;;;;;20.73;58.85;99140.84;2040101;28;20246;-54
2022/05/29 03:57:47;;;;;;;;;;;;;;;20.72;58.88;99135.81;2042315;28;20237;-50
2022/05/29 03:58:47;;;;;;;;;;;;;;;20.71;59.37;99140.53;2043887;28;19949;-51
2022/05/29 03:59:48;;;;;;;;;;;;;;;20.69;59.65;99133.94;2042082;28;19914;-50
2022/05/29 04:00:48;;;;;;;;;;;;;;;20.67;60.17;99140.66;2043601;28;19918;-53
2022/05/29 04:01:48;;;;;;;;;;;;;;;20.64;61.03;99138.03;2042655;28;19914;-51
2022/05/29 04:02:49;;;;;;;;;;;;;;;20.63;60.63;99131.00;2041995;28;20042;-53
2022/05/29 04:03:49;;;;;;;;;;;;;;;20.64;61.78;99138.03;2050714;28;20461;-52
2022/05/29 04:04:50;;;;;;;;;;;;;;;20.60;62.23;99132.66;2048945;28;20013;-53
2022/05/29 04:05:51;;;;;;;;;;;;;;;20.60;62.05;99132.66;2044940;28;19914;-50
2022/05/29 04:06:51;;;;;;;;;;;;;;;20.58;63.15;99135.09;2040279;28;19914;-52
2022/05/29 04:12:09;;;;;;;;;;;;;;;20.54;63.53;99133.66;2040215;28;19918;-53
2022/05/29 04:13:10;;;;;;;;;;;;;;;20.52;62.35;99136.09;2038977;28;19922;-53
2022/05/29 04:14:11;;;;;;;;;;;;;;;20.53;62.25;99137.63;2041598;28;19924;-54
2022/05/29 04:15:11;;;;;;;;;;;;;;;20.51;63.06;99140.06;2042434;28;19949;-54
2022/05/29 04:16:12;;;;;;;;;;;;;;;20.50;62.69;99139.31;2041878;28;19918;-53
2022/05/29 04:17:14;;;;;;;;;;;;;;;20.51;63.04;99138.09;2041808;28;20019;-53
2022/05/29 04:18:15;;;;;;;;;;;;;;;20.50;63.13;99138.53;2041849;28;19941;-53
2022/05/29 04:19:16;;;;;;;;;;;;;;;20.50;62.44;99144.03;2040083;28;19973;-53
2022/05/29 04:20:16;;;;;;;;;;;;;;;20.49;63.19;99142.50;2042595;28;19965;-53
2022/05/29 04:21:17;;;;;;;;;;;;;;;20.50;61.96;99144.03;2045087;28;20282;-52
2022/05/29 04:22:22;;;;;;;;;;;;;;;20.50;61.46;99139.31;2041479;28;19972;-53
2022/05/29 04:23:22;;;;;;;;;;;;;;;20.51;61.33;99145.56;2041187;28;20020;-52
2022/05/29 04:24:23;;;;;;;;;;;;;;;20.50;62.04;99142.06;2042834;28;20317;-53
2022/05/29 04:25:23;;;;;;;;;;;;;;;20.50;61.49;99144.03;2039220;28;20276;-53
2022/05/29 04:26:24;;;;;;;;;;;;;;;20.50;61.50;99144.03;2043123;28;19906;-53
2022/05/29 04:27:24;;;;;;;;;;;;;;;20.51;61.16;99140.84;2040846;28;19918;-53
2022/05/29 04:28:25;;;;;;;;;;;;;;;20.51;61.55;99148.31;2041141;28;19913;-52
2022/05/29 04:29:25;;;;;;;;;;;;;;;20.50;62.42;99149.53;2043228;28;19921;-54
2022/05/29 04:30:25;;;;;;;;;;;;;;;20.49;63.56;99143.25;2042750;28;19940;-51
2022/05/29 04:31:26;;;;;;;;;;;;;;;20.48;64.00;99147.22;2044349;28;19918;-53
2022/05/29 04:33:45;;;;;;;;;;;;;;;20.47;62.62;99144.91;2042026;28;20631;-52
2022/05/29 04:34:45;;;;;;;;;;;;;;;20.47;62.03;99147.66;2044027;28;19922;-50
2022/05/29 04:35:50;;;;;;;;;;;;;;;20.47;62.44;99150.41;2045082;28;19918;-52
2022/05/29 04:36:50;;;;;;;;;;;;;;;20.47;62.11;99142.16;2041089;28;20361;-50
2022/05/29 04:37:51;;;;;;;;;;;;;;;20.44;63.12;99149.31;2038126;28;19914;-52
2022/05/29 04:38:52;;;;;;;;;;;;;;;20.44;62.95;99149.31;2042052;28;24072;-53
2022/05/29 04:39:52;;;;;;;;;;;;;;;20.44;63.00;99151.31;2041984;28;19921;-50
2022/05/29 04:40:52;;;;;;;;;;;;;;;20.43;62.70;99144.25;2043241;28;20347;-53
2022/05/29 04:41:52;;;;;;;;;;;;;;;20.41;60.84;99150.19;2040150;28;19945;-53
2022/05/29 04:42:53;;;;;;;;;;;;;;;20.38;62.07;99144.81;2039642;28;19918;-51
2022/05/29 04:43:53;;;;;;;;;;;;;;;20.38;61.88;99148.34;2043277;28;19922;-52
2022/05/29 04:44:54;;;;;;;;;;;;;;;20.41;60.37;99149.47;2041416;28;19917;-52
2022/05/29 04:45:55;;;;;;;;;;;;;;;20.40;61.13;99151.44;2043772;28;19918;-50
2022/05/29 04:46:57;;;;;;;;;;;;;;;20.39;62.35;99146.38;2041686;28;19914;-51
2022/05/29 04:47:58;;;;;;;;;;;;;;;20.38;60.52;99147.56;2039975;28;19968;-54
2022/05/29 04:48:59;;;;;;;;;;;;;;;20.39;60.11;99143.63;2041502;28;19906;-54
2022/05/29 04:49:59;;;;;;;;;;;;;;;20.39;59.65;99149.88;2041577;28;20265;-52
2022/05/29 04:51:00;;;;;;;;;;;;;;;20.38;59.27;99147.56;2042095;28;19914;-53
2022/05/29 04:52:00;;;;;;;;;;;;;;;20.38;60.19;99147.56;2043688;28;19921;-53
2022/05/29 04:53:01;;;;;;;;;;;;;;;20.36;60.52;99150.75;2040098;28;19918;-53
2022/05/29 04:54:01;;;;;;;;;;;;;;;20.35;62.28;99151.22;2040113;28;19918;-52
2022/05/29 04:55:02;;;;;;;;;;;;;;;20.35;62.10;99153.97;2045749;28;20401;-52
2022/05/29 04:56:03;;;;;;;;;;;;;;;20.34;61.62;99144.97;2043058;28;19939;-53
2022/05/29 04:57:04;;;;;;;;;;;;;;;20.33;61.95;99150.88;2039330;28;20265;-50
2022/05/29 04:58:04;;;;;;;;;;;;;;;20.34;61.63;99146.94;2043765;28;20168;-51
2022/05/29 04:59:04;;;;;;;;;;;;;;;20.35;60.99;99153.97;2042283;28;20795;-50
2022/05/29 05:00:06;;;;;;;;;;;;;;;20.35;61.18;99148.47;2051133;28;19997;-50
2022/05/29 05:01:07;;;;;;;;;;;;;;;20.35;61.99;99153.97;2040193;28;20264;-50
2022/05/29 05:02:07;;;;;;;;;;;;;;;20.33;61.32;99156.38;2043576;28;20016;-53
2022/05/29 05:03:08;;;;;;;;;;;;;;;20.35;60.37;99152.00;2044711;28;19906;-52
2022/05/29 05:04:08;;;;;;;;;;;;;;;20.36;60.00;99153.50;2042591;28;19913;-51
2022/05/29 05:05:09;;;;;;;;;;;;;;;20.35;61.48;99153.97;2042987;28;19922;-50
2022/05/29 05:06:09;;;;;;;;;;;;;;;20.36;61.61;99161.00;2044256;28;19906;-54
2022/05/29 05:07:09;;;;;;;;;;;;;;;20.31;62.31;99156.81;2046147;28;19917;-51
2022/05/29 05:08:10;;;;;;;;;;;;;;;20.30;61.87;99149.78;2049702;28;20008;-51
2022/05/29 05:09:10;;;;;;;;;;;;;;;20.30;61.78;99157.25;2043758;28;19965;-51
2022/05/29 05:10:11;;;;;;;;;;;;;;;20.30;61.89;99157.25;2046266;28;20339;-51
2022/05/29 05:11:12;;;;;;;;;;;;;;;20.32;61.33;99160.34;2043066;28;20036;-50
2022/05/29 05:12:12;;;;;;;;;;;;;;;20.33;60.59;99150.88;2047030;28;19922;-51
2022/05/29 05:13:12;;;;;;;;;;;;;;;20.33;60.77;99156.38;2042895;28;19913;-53
2022/05/29 05:14:13;;;;;;;;;;;;;;;20.32;60.41;99155.63;2048620;28;19914;-51
2022/05/29 05:15:15;;;;;;;;;;;;;;;20.31;60.38;99165.06;2055109;28;19909;-54
2022/05/29 05:16:15;;;;;;;;;;;;;;;20.32;60.49;99161.13;2040418;28;19906;-51
2022/05/29 05:17:16;;;;;;;;;;;;;;;20.32;60.46;99163.09;2048030;28;19929;-53
2022/05/29 05:18:16;;;;;;;;;;;;;;;20.34;59.64;99166.19;2042422;28;20050;-53
2022/05/29 05:19:17;;;;;;;;;;;;;;;20.35;59.41;99170.47;2045110;28;19949;-52
2022/05/29 05:20:17;;;;;;;;;;;;;;;20.36;59.16;99166.50;2042814;28;20361;-53
2022/05/29 05:21:17;;;;;;;;;;;;;;;20.34;59.49;99166.97;2043257;28;19934;-53
2022/05/29 05:22:18;;;;;;;;;;;;;;;20.32;60.63;99171.34;2042562;28;19906;-54
2022/05/29 05:23:18;;;;;;;;;;;;;;;20.30;60.77;99169.03;2045237;28;19925;-53
2022/05/29 05:24:19;;;;;;;;;;;;;;;20.30;60.25;99173.75;2042438;28;20421;-51
2022/05/29 05:25:19;;;;;;;;;;;;;;;20.30;60.14;99182.00;2043627;28;19937;-50
2022/05/29 05:26:19;;;;;;;;;;;;;;;20.31;61.47;99175.28;2042586;28;20398;-53
2022/05/29 05:27:20;;;;;;;;;;;;;;;20.29;60.26;99170.25;2041592;28;19915;-53
2022/05/29 05:28:20;;;;;;;;;;;;;;;20.29;60.45;99166.72;2043822;28;19910;-51
2022/05/29 05:29:20;;;;;;;;;;;;;;;20.29;60.32;99166.72;2042426;28;20004;-50
2022/05/29 05:30:21;;;;;;;;;;;;;;;20.30;61.47;99173.75;2044541;28;20157;-53
2022/05/29 05:31:21;;;;;;;;;;;;;;;20.27;59.68;99166.38;2042998;28;19914;-52
2022/05/29 05:32:22;;;;;;;;;;;;;;;20.27;59.01;99169.91;2044494;28;19906;-53
2022/05/29 05:33:22;;;;;;;;;;;;;;;20.27;58.63;99172.66;2043959;28;19992;-52
2022/05/29 05:34:23;;;;;;;;;;;;;;;20.28;58.31;99167.91;2042854;28;20661;-50
2022/05/29 05:35:23;;;;;;;;;;;;;;;20.23;60.12;99178.28;2044117;28;19945;-52
2022/05/29 05:36:23;;;;;;;;;;;;;;;20.21;60.79;99174.41;2042709;28;20238;-52
2022/05/29 05:37:24;;;;;;;;;;;;;;;20.20;59.61;99179.13;2047321;28;19984;-51